Time;durP1;ratioP1;P1;durP2;ratioP2;P2;SDS_P1;SDS_P2;PMS_P1;PMS_P2;Temp;Humidity;BMP_temperature;BMP_pressure;BME280_temperature;BME280_humidity;BME280_pressure;Samples;Min_cycle;Max_cycle;Signal;HPM_P1;HPM_P2
2021/03/15 00:01:34;;;;;;;19.07;13.00;;;;;;;1.72;100.00;100674.62;1721834;81;21172;-85
2021/03/15 00:04:02;;;;;;;14.58;12.40;;;;;;;1.68;100.00;100674.33;1756507;80;21159;-85
2021/03/15 00:06:37;;;;;;;16.62;13.10;;;;;;;1.68;100.00;100676.89;1755070;80;21179;-84
2021/03/15 00:09:12;;;;;;;15.05;11.50;;;;;;;1.64;100.00;100670.21;1769737;80;21226;-85
2021/03/15 00:11:40;;;;;;;16.42;11.75;;;;;;;1.63;100.00;100665.97;1750201;80;21610;-85
2021/03/15 00:14:08;;;;;;;15.40;11.15;;;;;;;1.61;100.00;100662.16;1739341;80;21203;-84
2021/03/15 00:16:36;;;;;;;14.05;11.73;;;;;;;1.59;100.00;100661.39;1752307;81;21225;-84
2021/03/15 00:19:04;;;;;;;19.07;12.23;;;;;;;1.58;100.00;100664.84;1746087;80;21131;-84
2021/03/15 00:21:32;;;;;;;15.93;11.45;;;;;;;1.57;100.00;100660.14;1758553;80;21138;-85
2021/03/15 00:24:00;;;;;;;15.65;11.75;;;;;;;1.56;100.00;100652.52;1764677;80;21183;-84
2021/03/15 00:26:28;;;;;;;14.80;11.25;;;;;;;1.54;100.00;100647.88;1763927;80;21199;-85
2021/03/15 00:28:56;;;;;;;17.05;11.43;;;;;;;1.51;100.00;100644.98;1761414;80;21580;-85
2021/03/15 00:31:26;;;;;;;13.35;10.15;;;;;;;1.50;100.00;100644.58;1751518;81;21104;-84
2021/03/15 00:33:55;;;;;;;14.98;10.58;;;;;;;1.49;100.00;100645.47;1765011;80;21567;-85
2021/03/15 00:36:23;;;;;;;13.50;10.23;;;;;;;1.48;100.00;100637.41;1755058;80;21118;-85
2021/03/15 00:38:51;;;;;;;14.80;10.98;;;;;;;1.47;100.00;100640.87;1768754;80;21429;-85
2021/03/15 00:41:19;;;;;;;14.98;11.60;;;;;;;1.45;100.00;100639.22;1764512;80;21092;-85
2021/03/15 00:43:47;;;;;;;13.30;9.90;;;;;;;1.42;100.00;100635.05;1762382;81;21174;-85
2021/03/15 00:46:15;;;;;;;16.70;10.70;;;;;;;1.38;100.00;100633.50;1754736;80;21187;-84
2021/03/15 00:48:43;;;;;;;15.58;10.70;;;;;;;1.32;100.00;100628.59;1754997;80;21258;-85
2021/03/15 00:51:11;;;;;;;16.57;11.93;;;;;;;1.24;100.00;100621.16;1755425;80;21568;-85
2021/03/15 00:53:40;;;;;;;17.15;11.22;;;;;;;1.19;100.00;100620.05;1766675;80;21579;-84
2021/03/15 00:56:08;;;;;;;16.52;10.75;;;;;;;1.16;100.00;100614.19;1768318;80;21128;-85
2021/03/15 00:58:37;;;;;;;15.80;11.40;;;;;;;1.15;100.00;100625.34;1762179;80;21171;-84
2021/03/15 01:01:05;;;;;;;17.37;11.15;;;;;;;1.17;100.00;100633.82;1755467;80;21127;-84
2021/03/15 01:03:35;;;;;;;14.38;9.85;;;;;;;1.20;100.00;100644.81;1754223;80;22296;-85
2021/03/15 01:06:03;;;;;;;15.13;10.68;;;;;;;1.25;100.00;100645.47;1747728;80;21146;-85
2021/03/15 01:09:07;;;;;;;16.82;10.98;;;;;;;1.31;100.00;100643.59;1752825;80;21579;-85
2021/03/15 01:11:42;;;;;;;14.18;10.18;;;;;;;1.38;100.00;100646.33;1748970;80;21123;-84
2021/03/15 01:14:13;;;;;;;14.98;11.28;;;;;;;1.43;100.00;100651.30;1763737;80;21203;-85
2021/03/15 01:17:52;;;;;;;17.82;11.05;;;;;;;1.52;100.00;100638.95;1842170;77;23366;-84
2021/03/15 01:20:21;;;;;;;17.10;10.63;;;;;;;1.51;100.00;100641.13;1811994;78;21153;-85
2021/03/15 01:22:57;;;;;;;16.93;11.33;;;;;;;1.53;100.00;100640.63;1827153;77;21427;-85
2021/03/15 01:25:34;;;;;;;17.85;11.73;;;;;;;1.54;100.00;100638.45;1826927;77;21147;-84
2021/03/15 01:28:30;;;;;;;17.25;10.78;;;;;;;1.58;100.00;100639.18;1826997;78;21111;-85
2021/03/15 01:30:59;;;;;;;13.83;10.55;;;;;;;1.58;100.00;100641.29;1827048;77;21214;-86
2021/03/15 01:33:31;;;;;;;14.90;11.05;;;;;;;1.58;100.00;100645.59;1827091;77;21028;-86
2021/03/15 01:36:02;;;;;;;16.80;11.70;;;;;;;1.57;100.00;100646.48;1826848;77;21410;-86
2021/03/15 01:38:37;;;;;;;14.43;10.50;;;;;;;1.57;100.00;100640.89;1826889;77;21135;-86
2021/03/15 01:41:05;;;;;;;16.60;11.10;;;;;;;1.58;100.00;100645.14;1826817;77;21107;-86
2021/03/15 01:43:33;;;;;;;12.73;9.88;;;;;;;1.61;100.00;100647.20;1826853;77;21123;-86
2021/03/15 01:46:09;;;;;;;11.68;9.25;;;;;;;1.62;100.00;100648.42;1826963;77;21512;-86
2021/03/15 01:48:38;;;;;;;11.95;9.43;;;;;;;1.65;100.00;100643.62;1826952;77;21503;-85
2021/03/15 01:51:07;;;;;;;12.90;9.68;;;;;;;1.66;100.00;100647.44;1826969;77;21075;-86
2021/03/15 01:53:37;;;;;;;16.00;10.48;;;;;;;1.67;100.00;100646.97;1826971;77;21100;-86
2021/03/15 01:56:06;;;;;;;14.70;9.70;;;;;;;1.65;100.00;100641.05;1820304;77;21594;-86
2021/03/15 01:58:34;;;;;;;11.93;9.40;;;;;;;1.62;100.00;100643.75;1794404;79;21146;-86
2021/03/15 02:01:04;;;;;;;13.45;10.00;;;;;;;1.58;100.00;100645.14;1794390;78;21427;-86
2021/03/15 02:07:00;;;;;;;12.10;8.68;;;;;;;1.58;100.00;100643.85;1794415;80;21127;-84
2021/03/15 02:09:28;;;;;;;13.03;9.48;;;;;;;1.61;100.00;100648.03;1805616;78;21202;-84
2021/03/15 02:12:27;;;;;;;11.63;8.65;;;;;;;1.63;100.00;100642.86;1826989;77;21087;-84
2021/03/15 02:15:32;;;;;;;14.30;9.40;;;;;;;1.63;100.00;100644.97;1826816;77;21444;-85
2021/03/15 02:18:28;;;;;;;11.95;8.88;;;;;;;1.62;100.00;100643.30;1826965;78;21162;-86
2021/03/15 02:21:55;;;;;;;11.50;8.25;;;;;;;1.61;100.00;100644.64;1827009;77;21131;-85
2021/03/15 02:24:54;;;;;;;12.93;8.88;;;;;;;1.56;100.00;100635.83;1826846;77;21095;-85
2021/03/15 02:28:04;;;;;;;13.90;9.90;;;;;;;1.50;100.00;100632.21;1826586;77;21189;-84
2021/03/15 02:31:05;;;;;;;11.75;8.70;;;;;;;1.47;100.00;100640.87;1826453;77;21512;-84
2021/03/15 02:34:19;;;;;;;10.93;9.03;;;;;;;1.43;100.00;100634.16;1826530;78;21559;-84
2021/03/15 02:36:49;;;;;;;10.63;8.25;;;;;;;1.43;100.00;100638.47;1826292;78;21052;-86
2021/03/15 02:39:26;;;;;;;11.10;8.10;;;;;;;1.44;100.00;100648.66;1824108;77;21190;-87
2021/03/15 02:42:00;;;;;;;10.80;8.15;;;;;;;1.46;100.00;100646.89;1826332;78;21555;-86
2021/03/15 02:44:32;;;;;;;11.88;8.13;;;;;;;1.51;100.00;100651.86;1820796;77;21484;-87
2021/03/15 02:47:05;;;;;;;10.85;7.72;;;;;;;1.55;100.00;100650.83;1820662;78;21162;-84
2021/03/15 02:49:37;;;;;;;11.43;7.55;;;;;;;1.60;100.00;100648.09;1810726;77;21110;-85
2021/03/15 02:52:39;;;;;;;10.18;7.47;;;;;;;1.65;100.00;100648.33;1794006;79;21128;-85
2021/03/15 02:55:09;;;;;;;10.63;7.72;;;;;;;1.69;100.00;100642.16;1793854;80;21515;-85
2021/03/15 02:57:42;;;;;;;11.30;7.25;;;;;;;1.69;100.00;100643.91;1793754;78;21410;-85
2021/03/15 03:00:14;;;;;;;12.10;7.67;;;;;;;1.69;100.00;100642.62;1791236;78;21103;-84
2021/03/15 03:02:47;;;;;;;10.50;7.50;;;;;;;1.71;100.00;100645.98;1793572;78;21135;-84
2021/03/15 03:05:18;;;;;;;12.73;7.78;;;;;;;1.72;100.00;100638.67;1793837;78;21136;-85
2021/03/15 03:07:52;;;;;;;10.20;7.87;;;;;;;1.71;100.00;100641.67;1773371;79;21182;-85
2021/03/15 03:10:23;;;;;;;14.35;8.43;;;;;;;1.71;100.00;100637.81;1793818;80;21347;-85
2021/03/15 03:12:54;;;;;;;11.97;7.92;;;;;;;1.71;100.00;100640.39;1793785;78;21146;-86
2021/03/15 03:15:32;;;;;;;12.82;7.85;;;;;;;1.70;100.00;100641.27;1793776;78;21186;-85
2021/03/15 03:18:28;;;;;;;12.30;7.70;;;;;;;1.70;100.00;100637.42;1782833;79;21056;-85
2021/03/15 03:21:05;;;;;;;10.95;8.10;;;;;;;1.75;100.00;100640.28;1783126;80;21147;-86
2021/03/15 03:23:37;;;;;;;11.97;7.53;;;;;;;1.76;100.00;100639.39;1782916;79;21364;-86
2021/03/15 03:26:08;;;;;;;9.70;7.25;;;;;;;1.76;100.00;100638.93;1782718;79;21172;-86
2021/03/15 03:28:41;;;;;;;13.22;8.35;;;;;;;1.77;100.00;100644.89;1783056;79;21052;-84
2021/03/15 03:31:10;;;;;;;10.43;8.53;;;;;;;1.77;100.00;100639.32;1782947;79;21139;-84
2021/03/15 03:33:42;;;;;;;11.05;8.63;;;;;;;1.79;100.00;100640.54;1782915;79;21123;-83
2021/03/15 03:36:16;;;;;;;14.18;10.23;;;;;;;1.79;100.00;100644.39;1782923;79;21131;-85
2021/03/15 03:38:46;;;;;;;13.72;9.60;;;;;;;1.77;100.00;100642.32;1782812;80;21564;-85
2021/03/15 03:41:21;;;;;;;12.58;9.18;;;;;;;1.75;100.00;100639.00;1787019;77;21166;-85
2021/03/15 03:43:58;;;;;;;13.48;8.88;;;;;;;1.72;100.00;100639.50;1786625;79;21139;-84
2021/03/15 03:46:32;;;;;;;11.15;8.58;;;;;;;1.72;100.00;100639.95;1815011;78;21123;-85
2021/03/15 03:49:04;;;;;;;10.80;8.58;;;;;;;1.73;100.00;100642.89;1815057;78;21586;-85
2021/03/15 03:51:59;;;;;;;11.70;7.65;;;;;;;1.71;100.00;100635.25;1815121;79;26602;-85
2021/03/15 03:54:47;;;;;;;10.55;7.95;;;;;;;1.70;100.00;100634.03;1814115;77;21080;-86
2021/03/15 04:00:43;;;;;;;10.38;7.65;;;;;;;1.72;100.00;100634.36;1816292;77;22764;-85
2021/03/15 04:03:18;;;;;;;11.08;7.70;;;;;;;1.70;100.00;100632.75;1808026;79;20923;-84
2021/03/15 04:05:56;;;;;;;17.77;9.00;;;;;;;1.73;100.00;100633.47;1811476;79;22138;-84
2021/03/15 04:08:42;;;;;;;19.62;9.18;;;;;;;1.75;100.00;100628.27;1838070;78;21156;-85
2021/03/15 04:11:45;;;;;;;16.55;8.63;;;;;;;1.76;100.00;100617.10;1839544;78;21148;-86
2021/03/15 04:14:19;;;;;;;11.40;8.63;;;;;;;1.75;100.00;100618.45;1840820;78;21419;-84
2021/03/15 04:16:49;;;;;;;13.20;8.05;;;;;;;1.72;100.00;100623.27;1837896;78;21097;-85
2021/03/15 04:19:33;;;;;;;11.30;8.30;;;;;;;1.72;100.00;100621.98;1840812;78;22207;-85
2021/03/15 04:22:10;;;;;;;16.25;9.45;;;;;;;1.73;100.00;100626.20;1839048;78;21072;-85
2021/03/15 04:24:43;;;;;;;23.52;16.70;;;;;;;1.76;100.00;100620.14;1838675;77;21678;-86
2021/03/15 04:27:13;;;;;;;18.30;14.40;;;;;;;1.79;100.00;100621.28;1840563;77;21523;-85
2021/03/15 04:29:43;;;;;;;19.73;14.13;;;;;;;1.81;100.00;100623.34;1794937;78;21604;-85
2021/03/15 04:32:11;;;;;;;19.37;14.35;;;;;;;1.85;100.00;100618.47;1784425;79;21370;-84
2021/03/15 04:34:41;;;;;;;20.65;15.95;;;;;;;1.88;100.00;100617.91;1769298;79;21441;-84
2021/03/15 04:37:10;;;;;;;23.22;16.93;;;;;;;1.89;100.00;100614.91;1814040;78;21146;-85
2021/03/15 04:39:39;;;;;;;27.25;21.05;;;;;;;1.87;100.00;100613.69;1810279;79;21137;-84
2021/03/15 04:42:08;;;;;;;34.85;26.02;;;;;;;1.87;100.00;100615.41;1813654;78;21123;-84
2021/03/15 04:44:38;;;;;;;26.68;20.68;;;;;;;1.85;100.00;100615.47;1823241;78;21603;-86
2021/03/15 04:47:09;;;;;;;15.33;11.87;;;;;;;1.83;100.00;100617.25;1807807;79;21151;-86
2021/03/15 04:49:40;;;;;;;15.90;10.85;;;;;;;1.81;100.00;100617.75;1809214;79;21123;-86
2021/03/15 04:52:11;;;;;;;14.93;10.18;;;;;;;1.77;100.00;100612.80;1817908;78;21071;-87
2021/03/15 04:54:39;;;;;;;36.77;11.85;;;;;;;1.73;100.00;100624.48;1800218;77;21156;-88
2021/03/15 04:57:10;;;;;;;31.15;11.83;;;;;;;1.79;100.00;100622.13;1781305;79;21362;-86
2021/03/15 04:59:41;;;;;;;16.07;12.50;;;;;;;2.01;100.00;100614.41;1797205;79;21504;-87
2021/03/15 05:02:09;;;;;;;24.70;13.38;;;;;;;2.15;100.00;100615.16;1805911;78;21139;-87
2021/03/15 05:04:38;;;;;;;46.20;12.90;;;;;;;2.35;100.00;100621.23;1772856;79;21139;-87
2021/03/15 05:07:17;;;;;;;46.37;13.25;;;;;;;2.43;100.00;100612.77;1776728;79;21103;-87
2021/03/15 05:09:48;;;;;;;29.20;12.00;;;;;;;2.47;100.00;100615.58;1773349;80;22401;-87
2021/03/15 05:12:18;;;;;;;30.92;11.80;;;;;;;2.64;100.00;100617.91;1773723;79;21175;-88
2021/03/15 05:14:46;;;;;;;36.68;12.05;;;;;;;2.90;100.00;100624.50;1809005;78;21155;-88
2021/03/15 05:17:22;;;;;;;22.52;11.40;;;;;;;3.15;100.00;100619.58;1813714;78;21745;-88
2021/03/15 05:19:52;;;;;;;26.00;10.70;;;;;;;3.43;100.00;100618.37;1814872;78;21064;-89
2021/03/15 05:22:20;;;;;;;20.85;10.25;;;;;;;3.60;100.00;100621.02;1772981;79;21454;-87
2021/03/15 05:24:48;;;;;;;15.20;10.93;;;;;;;3.79;100.00;100622.72;1801961;77;21085;-87
2021/03/15 05:27:17;;;;;;;16.45;11.43;;;;;;;3.92;100.00;100626.41;1815678;78;21352;-87
2021/03/15 05:29:51;;;;;;;16.48;10.15;;;;;;;3.82;100.00;100616.15;1777417;79;21191;-86
2021/03/15 05:32:22;;;;;;;14.23;10.78;;;;;;;3.63;100.00;100620.86;1744627;81;21164;-86
2021/03/15 05:34:53;;;;;;;14.65;10.38;;;;;;;3.48;100.00;100622.38;1782405;79;21397;-85
2021/03/15 05:37:24;;;;;;;13.28;9.40;;;;;;;3.37;100.00;100624.63;1828778;78;21113;-87
2021/03/15 05:39:59;;;;;;;14.87;11.38;;;;;;;3.29;100.00;100615.12;1797011;79;21588;-86
2021/03/15 05:43:21;;;;;;;14.45;10.20;;;;;;;3.20;100.00;100616.81;1802825;78;21100;-87
2021/03/15 05:46:26;;;;;;;15.55;10.60;;;;;;;3.15;100.00;100618.30;1820598;78;21780;-86
2021/03/15 05:49:29;;;;;;;14.65;10.25;;;;;;;3.14;100.00;100613.62;1824592;78;21529;-86
2021/03/15 05:52:27;;;;;;;12.82;10.30;;;;;;;3.14;100.00;100616.19;1767712;79;21164;-87
2021/03/15 05:55:20;;;;;;;13.78;10.43;;;;;;;3.18;100.00;100611.73;1765873;81;21119;-87
2021/03/15 05:58:52;;;;;;;17.65;10.70;;;;;;;3.24;100.00;100611.46;1767821;79;21151;-89
2021/03/15 06:01:54;;;;;;;14.83;9.95;;;;;;;3.33;100.00;100615.35;1763373;81;21532;-88
2021/03/15 06:05:07;;;;;;;15.90;10.63;;;;;;;3.45;100.00;100612.67;1767134;80;21449;-87
2021/03/15 06:07:49;;;;;;;16.07;9.95;;;;;;;3.55;100.00;100611.83;1702908;82;21675;-88
2021/03/15 06:13:51;;;;;;;13.03;9.13;;;;;;;3.80;100.00;100605.08;1796762;79;21536;-92
2021/03/15 06:16:20;;;;;;;18.70;9.58;;;;;;;4.03;100.00;100610.44;1798144;78;21598;-91
2021/03/15 06:18:52;;;;;;;16.12;8.95;;;;;;;4.25;100.00;100609.39;1802030;79;22185;-92
2021/03/15 06:21:20;;;;;;;17.30;8.68;;;;;;;4.45;100.00;100609.70;1805927;78;21123;-91
2021/03/15 06:23:50;;;;;;;11.85;8.85;;;;;;;4.59;100.00;100611.60;1805881;78;21557;-89
2021/03/15 06:26:19;;;;;;;12.47;8.23;;;;;;;4.69;100.00;100606.34;1778965;78;21643;-87
2021/03/15 06:28:47;;;;;;;13.03;8.75;;;;;;;4.81;100.00;100605.34;1791646;79;21116;-87
2021/03/15 06:31:17;;;;;;;11.35;8.63;;;;;;;4.93;100.00;100605.99;1804681;78;21355;-87
2021/03/15 06:33:47;;;;;;;12.90;8.23;;;;;;;5.03;100.00;100612.36;1778034;79;21115;-88
2021/03/15 06:36:16;;;;;;;15.83;8.35;;;;;;;5.25;100.00;100602.19;1773507;80;21167;-88
2021/03/15 06:38:46;;;;;;;16.30;8.25;;;;;;;5.25;100.00;100602.19;1805137;79;21642;-87
2021/03/15 06:41:16;;;;;;;12.98;8.33;;;;;;;5.33;100.00;100606.95;1828591;78;21123;-89
2021/03/15 06:43:45;;;;;;;18.45;8.45;;;;;;;5.41;100.00;100606.09;1797424;79;21623;-87
2021/03/15 06:46:15;;;;;;;15.80;8.15;;;;;;;5.49;100.00;100609.09;1808198;77;21500;-85
2021/03/15 06:48:44;;;;;;;15.43;8.40;;;;;;;5.58;100.00;100601.77;1789066;79;21619;-87
2021/03/15 06:51:14;;;;;;;10.03;7.80;;;;;;;5.63;100.00;100607.06;1772337;79;21113;-86
2021/03/15 06:53:43;;;;;;;11.40;8.43;;;;;;;5.67;100.00;100608.55;1822794;78;21060;-86
2021/03/15 06:56:15;;;;;;;10.13;7.70;;;;;;;5.72;100.00;100613.94;1772656;79;21243;-86
2021/03/15 06:58:54;;;;;;;10.10;7.37;;;;;;;5.81;100.00;100610.81;1789796;79;21155;-87
2021/03/15 07:01:25;;;;;;;9.75;7.20;;;;;;;5.91;100.00;100598.24;1805116;79;21111;-86
2021/03/15 07:04:11;;;;;;;8.58;6.95;;;;;;;5.98;100.00;100607.32;1805407;79;21171;-87
2021/03/15 07:06:42;;;;;;;11.35;7.20;;;;;;;6.00;100.00;100605.05;1805510;79;21136;-85
2021/03/15 07:09:11;;;;;;;;;;;;;;;6.03;100.00;100601.92;1807952;79;22284;-86
2021/03/15 07:11:40;;;;;;;9.40;6.78;;;;;;;6.08;100.00;100603.78;1805176;79;20304;-86
2021/03/15 07:14:23;;;;;;;9.05;6.30;;;;;;;6.13;100.00;100604.34;1797863;79;21135;-86
2021/03/15 07:17:01;;;;;;;14.00;6.53;;;;;;;6.23;100.00;100603.37;1811605;78;21155;-84
2021/03/15 07:19:30;;;;;;;9.53;5.62;;;;;;;6.34;100.00;100607.94;1787146;79;22186;-86
2021/03/15 07:22:02;;;;;;;7.03;5.35;;;;;;;6.45;100.00;100613.30;1775720;79;21356;-86
2021/03/15 07:24:31;;;;;;;6.67;5.30;;;;;;;6.53;100.00;100611.11;1777007;79;21544;-86
2021/03/15 07:26:59;;;;;;;8.60;5.60;;;;;;;6.60;100.00;100607.70;1800178;79;21592;-86
2021/03/15 07:29:29;;;;;;;7.35;5.40;;;;;;;6.67;100.00;100607.72;1804969;77;21151;-86
2021/03/15 07:31:57;;;;;;;8.28;6.60;;;;;;;6.72;100.00;100602.27;1801312;79;21535;-86
2021/03/15 07:34:25;;;;;;;9.15;7.67;;;;;;;6.79;100.00;100606.16;1801048;78;21327;-85
2021/03/15 07:36:59;;;;;;;9.68;7.40;;;;;;;6.84;100.00;100600.71;1801170;79;21619;-86
2021/03/15 07:39:29;;;;;;;14.25;10.03;;;;;;;6.89;100.00;100602.11;1805156;78;21835;-86
2021/03/15 07:42:01;;;;;;;16.85;14.28;;;;;;;6.93;100.00;100598.87;1777385;79;21243;-86
2021/03/15 07:44:34;;;;;;;18.25;15.08;;;;;;;6.95;100.00;100601.73;1779262;79;22079;-86
2021/03/15 07:47:06;;;;;;;28.07;19.48;;;;;;;6.98;100.00;100594.23;1776126;79;21467;-86
2021/03/15 07:49:42;;;;;;;25.70;21.60;;;;;;;7.01;100.00;100598.42;1780641;79;21427;-87
2021/03/15 07:52:13;;;;;;;28.42;23.75;;;;;;;7.04;100.00;100602.10;1806549;78;21195;-87
2021/03/15 07:54:45;;;;;;;31.40;27.90;;;;;;;7.05;100.00;100602.00;1808473;78;21144;-87
2021/03/15 07:57:26;;;;;;;35.70;31.05;;;;;;;7.09;100.00;100600.09;1776379;79;21188;-86
2021/03/15 07:59:58;;;;;;;36.75;32.23;;;;;;;7.13;100.00;100602.03;1775241;79;21355;-85
2021/03/15 08:02:34;;;;;;;38.23;32.60;;;;;;;7.16;100.00;100600.08;1755463;79;21178;-85
2021/03/15 08:05:02;;;;;;;35.78;31.07;;;;;;;7.19;100.00;100595.98;1807790;78;21055;-87
2021/03/15 08:07:31;;;;;;;34.78;30.97;;;;;;;7.25;100.00;100597.38;1796135;77;21088;-86
2021/03/15 08:10:00;;;;;;;36.13;30.40;;;;;;;7.32;99.78;100595.25;1803738;79;21150;-86
2021/03/15 08:12:35;;;;;;;35.45;27.60;;;;;;;7.37;97.06;100595.79;1817083;78;21236;-86
2021/03/15 08:15:10;;;;;;;28.90;25.65;;;;;;;7.46;95.91;100591.78;1774042;80;21063;-86
2021/03/15 08:17:45;;;;;;;35.45;26.77;;;;;;;7.56;93.49;100591.13;1740049;79;21211;-86
2021/03/15 08:20:16;;;;;;;28.30;24.90;;;;;;;7.65;90.74;100588.41;1770686;79;21182;-86
2021/03/15 08:22:51;;;;;;;29.77;24.95;;;;;;;7.72;87.51;100586.27;1735165;82;21127;-86
2021/03/15 08:25:22;;;;;;;32.65;27.52;;;;;;;7.78;87.43;100579.39;1734697;81;21626;-87
2021/03/15 08:27:52;;;;;;;28.12;25.08;;;;;;;7.80;87.93;100582.73;1732853;79;21164;-87
2021/03/15 08:30:27;;;;;;;31.60;26.12;;;;;;;7.83;88.68;100581.70;1759303;79;21216;-85
2021/03/15 08:32:56;;;;;;;29.72;26.27;;;;;;;7.87;88.17;100581.41;1747669;81;21208;-85
2021/03/15 08:35:25;;;;;;;29.52;26.15;;;;;;;7.93;86.52;100568.52;1773870;80;21180;-85
2021/03/15 08:38:00;;;;;;;31.85;27.77;;;;;;;7.99;88.38;100577.63;1775471;79;22104;-85
2021/03/15 08:40:47;;;;;;;30.65;26.70;;;;;;;8.06;87.72;100580.19;1784038;80;21124;-86
2021/03/15 08:43:25;;;;;;;36.28;29.48;;;;;;;8.15;88.22;100577.00;1753271;81;21206;-86
2021/03/15 08:46:02;;;;;;;33.88;28.70;;;;;;;8.32;88.01;100573.31;1803197;79;21579;-86
2021/03/15 08:48:42;;;;;;;32.90;28.55;;;;;;;8.45;88.14;100571.19;1772063;80;21151;-86
2021/03/15 08:51:16;;;;;;;30.48;27.20;;;;;;;8.53;87.52;100576.25;1770642;80;22265;-86
2021/03/15 08:53:51;;;;;;;28.85;24.45;;;;;;;8.59;86.23;100571.12;1770394;80;21185;-86
2021/03/15 08:56:25;;;;;;;25.52;22.77;;;;;;;8.66;84.92;100566.35;1748673;80;21149;-86
2021/03/15 08:58:54;;;;;;;25.72;22.95;;;;;;;8.75;84.17;100572.22;1763962;81;21187;-86
2021/03/15 09:01:27;;;;;;;22.62;20.17;;;;;;;8.90;80.97;100569.50;1797850;77;21139;-86
2021/03/15 09:04:01;;;;;;;22.87;20.15;;;;;;;9.06;79.31;100572.70;1816764;77;21201;-86
2021/03/15 09:06:37;;;;;;;26.23;20.60;;;;;;;9.25;77.39;100567.53;1808909;78;21198;-87
2021/03/15 09:09:25;;;;;;;23.22;19.70;;;;;;;9.39;73.55;100571.28;1782809;79;21133;-86
2021/03/15 09:11:56;;;;;;;23.57;20.25;;;;;;;9.49;71.29;100569.33;1780611;78;21571;-86
2021/03/15 09:14:33;;;;;;;21.87;18.75;;;;;;;9.52;69.78;100570.39;1782237;79;21155;-85
2021/03/15 09:17:15;;;;;;;19.12;17.07;;;;;;;9.56;69.24;100572.66;1770256;79;22273;-86
2021/03/15 09:19:49;;;;;;;21.80;17.67;;;;;;;9.60;65.63;100569.37;1777246;79;21234;-86
2021/03/15 09:22:27;;;;;;;19.23;16.60;;;;;;;9.61;66.44;100568.44;1777788;78;21699;-87
2021/03/15 09:25:02;;;;;;;19.75;17.62;;;;;;;9.63;65.49;100569.16;1784804;79;21214;-87
2021/03/15 09:27:37;;;;;;;21.07;18.52;;;;;;;9.71;66.30;100564.24;1785362;79;21488;-87
2021/03/15 09:30:18;;;;;;;20.45;17.55;;;;;;;9.82;69.46;100569.11;1778467;79;21376;-87
2021/03/15 09:32:51;;;;;;;19.92;17.40;;;;;;;9.92;66.81;100567.51;1779882;79;21572;-85
2021/03/15 09:38:47;;;;;;;18.87;16.02;;;;;;;10.15;60.29;100555.87;1831200;77;27821;-86
2021/03/15 09:41:19;;;;;;;16.12;12.55;;;;;;;10.22;60.16;100554.47;1823707;77;21110;-86
2021/03/15 09:43:45;;;;;;;19.37;17.27;;;;;;;10.36;58.97;100550.39;1812777;78;21773;-87
2021/03/15 09:46:14;;;;;;;17.65;15.75;;;;;;;10.49;58.14;100552.92;1831947;77;21652;-87
2021/03/15 09:48:45;;;;;;;19.12;16.80;;;;;;;10.63;58.05;100549.73;1833398;76;21161;-86
2021/03/15 09:51:26;;;;;;;14.65;13.15;;;;;;;10.73;55.92;100549.39;1812867;78;21192;-86
2021/03/15 09:54:13;;;;;;;17.48;14.73;;;;;;;10.80;53.69;100544.52;1812266;78;21145;-87
2021/03/15 09:56:43;;;;;;;15.18;12.07;;;;;;;10.85;52.52;100540.62;1787461;79;21617;-87
2021/03/15 09:59:19;;;;;;;23.40;18.85;;;;;;;10.88;52.09;100539.09;1795373;78;21108;-87
2021/03/15 10:01:52;;;;;;;13.98;12.47;;;;;;;10.94;52.72;100543.45;1792711;79;21191;-86
2021/03/15 10:04:43;;;;;;;13.78;12.18;;;;;;;11.07;52.94;100540.73;1834342;78;22232;-86
2021/03/15 10:07:30;;;;;;;24.50;20.25;;;;;;;11.10;53.92;100539.16;1800860;79;21056;-85
2021/03/15 10:10:21;;;;;;;21.68;15.83;;;;;;;11.18;52.73;100535.02;1799875;78;21186;-86
2021/03/15 10:13:08;;;;;;;16.37;12.40;;;;;;;11.26;53.77;100535.70;1796584;79;21129;-86
2021/03/15 10:15:50;;;;;;;16.65;12.40;;;;;;;11.30;54.52;100534.52;1730404;82;21137;-86
2021/03/15 10:18:26;;;;;;;22.77;15.80;;;;;;;11.38;55.20;100533.08;1731457;81;21152;-86
2021/03/15 10:20:56;;;;;;;15.23;12.85;;;;;;;11.42;56.04;100534.02;1736762;81;21976;-86
2021/03/15 10:23:32;;;;;;;20.95;15.25;;;;;;;11.49;57.75;100526.55;1727704;80;21446;-86
2021/03/15 10:26:00;;;;;;;21.87;17.33;;;;;;;11.55;57.82;100523.44;1732507;80;21631;-86
2021/03/15 10:28:33;;;;;;;20.02;16.52;;;;;;;11.61;57.95;100517.72;1721654;82;21640;-85
2021/03/15 10:31:08;;;;;;;18.40;15.23;;;;;;;11.66;57.95;100508.22;1726345;82;21199;-85
2021/03/15 10:33:47;;;;;;;19.55;16.05;;;;;;;11.74;58.43;100509.72;1725186;82;21220;-86
2021/03/15 10:36:22;;;;;;;18.92;16.10;;;;;;;11.79;57.15;100509.34;1738496;82;21556;-86
2021/03/15 10:38:52;;;;;;;22.60;15.70;;;;;;;11.78;58.27;100496.77;1735533;81;21184;-87
2021/03/15 10:41:21;;;;;;;24.45;18.80;;;;;;;11.79;59.49;100496.30;1765599;80;21210;-87
2021/03/15 10:43:50;;;;;;;19.02;16.52;;;;;;;11.79;59.52;100497.61;1760231;80;21183;-87
2021/03/15 10:46:26;;;;;;;;;;;;;;;11.77;62.07;100497.74;1790023;80;21122;-87
2021/03/15 10:48:59;;;;;;;23.25;18.40;;;;;;;11.75;62.43;100483.98;1788573;80;22110;-85
2021/03/15 10:51:27;;;;;;;19.92;17.60;;;;;;;11.72;61.25;100480.31;1729609;83;21169;-85
2021/03/15 10:54:02;;;;;;;21.93;18.32;;;;;;;11.72;62.94;100484.72;1724003;83;21070;-85
2021/03/15 10:56:33;;;;;;;21.27;16.75;;;;;;;11.77;63.30;100474.73;1729205;81;21192;-86
2021/03/15 10:59:03;;;;;;;22.62;19.40;;;;;;;11.84;65.15;100466.73;1759702;80;21190;-86
2021/03/15 11:01:34;;;;;;;24.37;19.95;;;;;;;11.96;64.43;100468.34;1745517;81;26626;-86
2021/03/15 11:04:11;;;;;;;24.07;18.50;;;;;;;12.11;62.47;100471.47;1741180;82;21131;-86
2021/03/15 11:06:44;;;;;;;26.77;20.50;;;;;;;12.23;61.77;100466.99;1743066;82;21132;-86
2021/03/15 11:09:28;;;;;;;19.10;16.57;;;;;;;12.41;62.88;100457.25;1849957;76;22738;-86
2021/03/15 11:11:59;;;;;;;17.80;15.45;;;;;;;12.48;61.11;100455.77;1836099;77;21143;-86
2021/03/15 11:14:30;;;;;;;20.95;17.40;;;;;;;12.56;60.02;100452.02;1810682;79;21614;-86
2021/03/15 11:17:01;;;;;;;18.92;16.00;;;;;;;12.63;59.65;100454.94;1769664;77;21143;-87
2021/03/15 11:19:34;;;;;;;19.17;15.20;;;;;;;12.69;59.60;100451.78;1793339;77;21147;-86
2021/03/15 11:22:03;;;;;;;18.98;14.90;;;;;;;12.78;57.74;100437.08;1765180;79;21194;-86
2021/03/15 11:24:38;;;;;;;18.07;14.47;;;;;;;12.86;58.61;100442.95;1787185;79;21155;-85
2021/03/15 11:27:15;;;;;;;20.62;14.68;;;;;;;12.95;57.67;100439.55;1815364;78;21317;-86
2021/03/15 11:29:49;;;;;;;17.98;14.93;;;;;;;13.00;56.82;100428.69;1814063;77;21137;-86
2021/03/15 11:32:30;;;;;;;18.37;13.95;;;;;;;13.10;57.09;100428.19;1840940;77;22850;-86
2021/03/15 11:35:05;;;;;;;18.95;13.62;;;;;;;13.09;57.71;100430.48;1814507;79;21128;-86
2021/03/15 11:37:35;;;;;;;16.73;14.35;;;;;;;13.15;55.11;100423.40;1811138;79;21885;-86
2021/03/15 11:40:08;;;;;;;18.12;14.23;;;;;;;13.17;54.10;100424.09;1742255;81;21142;-86
2021/03/15 11:42:38;;;;;;;25.07;15.67;;;;;;;13.13;53.31;100418.78;1743423;82;21075;-86
2021/03/15 11:45:10;;;;;;;16.75;13.72;;;;;;;13.07;53.85;100419.34;1744111;82;21199;-86
2021/03/15 11:47:39;;;;;;;16.10;12.27;;;;;;;13.01;53.42;100410.25;1748787;82;21144;-86
2021/03/15 11:50:13;;;;;;;18.73;12.85;;;;;;;13.01;54.13;100400.28;1752280;80;22281;-86
2021/03/15 11:52:52;;;;;;;15.20;12.78;;;;;;;12.97;54.18;100404.11;1733608;82;21139;-86
2021/03/15 11:55:22;;;;;;;16.37;13.85;;;;;;;12.91;53.38;100406.33;1733486;80;21193;-87
2021/03/15 11:57:51;;;;;;;14.00;12.03;;;;;;;12.89;55.01;100399.09;1752460;81;21595;-86
2021/03/15 12:00:21;;;;;;;15.80;13.85;;;;;;;12.94;55.33;100399.99;1736967;80;21170;-87
2021/03/15 12:02:53;;;;;;;15.38;13.00;;;;;;;12.98;56.28;100394.02;1739690;82;21373;-86
2021/03/15 12:05:41;;;;;;;14.47;12.07;;;;;;;12.96;56.00;100390.23;1744969;82;21558;-87